sensor_id;sensor_type;location;lat;lon;timestamp;P1;durP1;ratioP1;P2;durP2;ratioP2
12852;SDS011;6495;51.808;7.478;2022-11-20T00:00:56;8.07;;;4.83;;
12852;SDS011;6495;51.808;7.478;2022-11-20T00:03:50;7.80;;;5.03;;
12852;SDS011;6495;51.808;7.478;2022-11-20T00:06:38;5.20;;;3.90;;
12852;SDS011;6495;51.808;7.478;2022-11-20T00:09:25;7.40;;;3.80;;
12852;SDS011;6495;51.808;7.478;2022-11-20T00:12:11;6.83;;;4.50;;
12852;SDS011;6495;51.808;7.478;2022-11-20T00:14:58;6.93;;;4.37;;
12852;SDS011;6495;51.808;7.478;2022-11-20T00:17:47;9.77;;;5.13;;
12852;SDS011;6495;51.808;7.478;2022-11-20T00:20:33;7.60;;;4.73;;
12852;SDS011;6495;51.808;7.478;2022-11-20T00:23:20;6.90;;;4.27;;
12852;SDS011;6495;51.808;7.478;2022-11-20T00:26:08;8.83;;;4.20;;
12852;SDS011;6495;51.808;7.478;2022-11-20T00:28:57;9.00;;;4.53;;
12852;SDS011;6495;51.808;7.478;2022-11-20T00:31:47;8.03;;;4.70;;
12852;SDS011;6495;51.808;7.478;2022-11-20T00:34:35;8.57;;;5.20;;
12852;SDS011;6495;51.808;7.478;2022-11-20T00:37:21;5.37;;;4.07;;
12852;SDS011;6495;51.808;7.478;2022-11-20T00:40:09;8.63;;;4.57;;
12852;SDS011;6495;51.808;7.478;2022-11-20T00:42:56;10.33;;;5.13;;
12852;SDS011;6495;51.808;7.478;2022-11-20T00:45:43;6.73;;;4.53;;
12852;SDS011;6495;51.808;7.478;2022-11-20T00:48:30;8.57;;;4.27;;
12852;SDS011;6495;51.808;7.478;2022-11-20T00:51:19;6.53;;;3.97;;
12852;SDS011;6495;51.808;7.478;2022-11-20T00:54:09;6.50;;;3.90;;
12852;SDS011;6495;51.808;7.478;2022-11-20T00:56:55;6.10;;;4.57;;
12852;SDS011;6495;51.808;7.478;2022-11-20T00:59:42;7.20;;;4.10;;
12852;SDS011;6495;51.808;7.478;2022-11-20T01:02:28;8.40;;;4.63;;
12852;SDS011;6495;51.808;7.478;2022-11-20T01:05:15;11.27;;;5.43;;
12852;SDS011;6495;51.808;7.478;2022-11-20T01:08:03;12.63;;;4.93;;
12852;SDS011;6495;51.808;7.478;2022-11-20T01:10:50;8.03;;;4.50;;
12852;SDS011;6495;51.808;7.478;2022-11-20T01:13:37;7.50;;;4.47;;
12852;SDS011;6495;51.808;7.478;2022-11-20T01:16:26;7.90;;;4.83;;
12852;SDS011;6495;51.808;7.478;2022-11-20T01:19:16;9.47;;;5.33;;
12852;SDS011;6495;51.808;7.478;2022-11-20T01:22:05;8.67;;;5.27;;
12852;SDS011;6495;51.808;7.478;2022-11-20T01:24:54;7.30;;;4.30;;
12852;SDS011;6495;51.808;7.478;2022-11-20T01:27:41;8.53;;;4.83;;
12852;SDS011;6495;51.808;7.478;2022-11-20T01:30:27;6.77;;;4.43;;
12852;SDS011;6495;51.808;7.478;2022-11-20T01:33:15;8.00;;;5.13;;
12852;SDS011;6495;51.808;7.478;2022-11-20T01:36:05;7.63;;;4.47;;
12852;SDS011;6495;51.808;7.478;2022-11-20T01:38:54;6.30;;;4.23;;
12852;SDS011;6495;51.808;7.478;2022-11-20T01:41:46;8.07;;;4.80;;
12852;SDS011;6495;51.808;7.478;2022-11-20T01:44:55;11.63;;;5.50;;
12852;SDS011;6495;51.808;7.478;2022-11-20T01:47:44;8.20;;;4.50;;
12852;SDS011;6495;51.808;7.478;2022-11-20T01:50:34;6.90;;;4.53;;
12852;SDS011;6495;51.808;7.478;2022-11-20T01:53:23;6.47;;;4.33;;
12852;SDS011;6495;51.808;7.478;2022-11-20T01:56:16;8.07;;;5.37;;
12852;SDS011;6495;51.808;7.478;2022-11-20T01:59:05;7.10;;;3.97;;
12852;SDS011;6495;51.808;7.478;2022-11-20T02:01:56;9.03;;;5.73;;
12852;SDS011;6495;51.808;7.478;2022-11-20T02:04:44;8.03;;;4.43;;
12852;SDS011;6495;51.808;7.478;2022-11-20T02:07:31;7.07;;;4.30;;
12852;SDS011;6495;51.808;7.478;2022-11-20T02:10:18;9.63;;;5.13;;
12852;SDS011;6495;51.808;7.478;2022-11-20T02:13:06;9.43;;;5.17;;
12852;SDS011;6495;51.808;7.478;2022-11-20T02:16:13;6.20;;;4.03;;
12852;SDS011;6495;51.808;7.478;2022-11-20T02:19:06;6.40;;;4.20;;
12852;SDS011;6495;51.808;7.478;2022-11-20T02:22:10;8.53;;;5.30;;
12852;SDS011;6495;51.808;7.478;2022-11-20T02:25:06;8.20;;;4.53;;
12852;SDS011;6495;51.808;7.478;2022-11-20T02:27:55;5.73;;;4.20;;
12852;SDS011;6495;51.808;7.478;2022-11-20T02:30:43;7.00;;;4.27;;
12852;SDS011;6495;51.808;7.478;2022-11-20T02:33:30;10.80;;;4.93;;
12852;SDS011;6495;51.808;7.478;2022-11-20T02:36:17;7.93;;;4.63;;
12852;SDS011;6495;51.808;7.478;2022-11-20T02:39:04;8.50;;;4.13;;
12852;SDS011;6495;51.808;7.478;2022-11-20T02:41:53;9.13;;;5.30;;
12852;SDS011;6495;51.808;7.478;2022-11-20T02:44:42;10.37;;;5.33;;
12852;SDS011;6495;51.808;7.478;2022-11-20T02:47:28;11.37;;;5.20;;
12852;SDS011;6495;51.808;7.478;2022-11-20T02:50:16;7.67;;;5.33;;
12852;SDS011;6495;51.808;7.478;2022-11-20T02:53:03;7.30;;;5.00;;
12852;SDS011;6495;51.808;7.478;2022-11-20T02:55:50;8.87;;;5.40;;
12852;SDS011;6495;51.808;7.478;2022-11-20T02:58:39;6.43;;;4.93;;
12852;SDS011;6495;51.808;7.478;2022-11-20T03:01:25;8.10;;;4.70;;
12852;SDS011;6495;51.808;7.478;2022-11-20T03:04:12;8.67;;;4.70;;
12852;SDS011;6495;51.808;7.478;2022-11-20T03:06:59;9.67;;;4.43;;
12852;SDS011;6495;51.808;7.478;2022-11-20T03:09:46;7.90;;;5.03;;
12852;SDS011;6495;51.808;7.478;2022-11-20T03:12:33;6.90;;;4.30;;
12852;SDS011;6495;51.808;7.478;2022-11-20T03:15:22;7.50;;;4.80;;
12852;SDS011;6495;51.808;7.478;2022-11-20T03:18:09;8.87;;;4.63;;
12852;SDS011;6495;51.808;7.478;2022-11-20T03:20:58;11.03;;;4.40;;
12852;SDS011;6495;51.808;7.478;2022-11-20T03:23:45;10.43;;;5.60;;
12852;SDS011;6495;51.808;7.478;2022-11-20T03:26:31;7.40;;;5.17;;
12852;SDS011;6495;51.808;7.478;2022-11-20T03:29:18;7.20;;;4.53;;
12852;SDS011;6495;51.808;7.478;2022-11-20T03:32:07;11.87;;;5.40;;
12852;SDS011;6495;51.808;7.478;2022-11-20T03:34:54;7.13;;;4.67;;
12852;SDS011;6495;51.808;7.478;2022-11-20T03:37:41;7.23;;;4.40;;
12852;SDS011;6495;51.808;7.478;2022-11-20T03:40:27;9.10;;;4.60;;
12852;SDS011;6495;51.808;7.478;2022-11-20T03:43:14;10.40;;;5.07;;
12852;SDS011;6495;51.808;7.478;2022-11-20T03:46:01;7.27;;;4.77;;
12852;SDS011;6495;51.808;7.478;2022-11-20T03:48:50;7.17;;;4.57;;
12852;SDS011;6495;51.808;7.478;2022-11-20T03:51:38;8.30;;;5.13;;
12852;SDS011;6495;51.808;7.478;2022-11-20T03:54:24;9.53;;;5.17;;
12852;SDS011;6495;51.808;7.478;2022-11-20T03:57:11;8.10;;;4.80;;
12852;SDS011;6495;51.808;7.478;2022-11-20T03:59:58;7.07;;;4.67;;
12852;SDS011;6495;51.808;7.478;2022-11-20T04:02:45;6.83;;;4.87;;
12852;SDS011;6495;51.808;7.478;2022-11-20T04:05:33;6.30;;;4.00;;
12852;SDS011;6495;51.808;7.478;2022-11-20T04:08:20;10.30;;;5.20;;
12852;SDS011;6495;51.808;7.478;2022-11-20T04:11:08;6.83;;;3.93;;
12852;SDS011;6495;51.808;7.478;2022-11-20T04:13:57;8.23;;;5.23;;
12852;SDS011;6495;51.808;7.478;2022-11-20T04:16:47;7.87;;;4.97;;
12852;SDS011;6495;51.808;7.478;2022-11-20T04:19:34;7.10;;;4.43;;
12852;SDS011;6495;51.808;7.478;2022-11-20T04:22:22;7.07;;;4.87;;
12852;SDS011;6495;51.808;7.478;2022-11-20T04:25:08;8.47;;;5.13;;
12852;SDS011;6495;51.808;7.478;2022-11-20T04:27:55;7.23;;;4.80;;
12852;SDS011;6495;51.808;7.478;2022-11-20T04:30:42;7.80;;;5.53;;
12852;SDS011;6495;51.808;7.478;2022-11-20T04:33:30;10.40;;;5.80;;
12852;SDS011;6495;51.808;7.478;2022-11-20T04:36:18;13.73;;;7.03;;
12852;SDS011;6495;51.808;7.478;2022-11-20T04:39:13;10.37;;;6.27;;
12852;SDS011;6495;51.808;7.478;2022-11-20T04:42:01;11.00;;;6.07;;
12852;SDS011;6495;51.808;7.478;2022-11-20T04:45:06;12.20;;;6.23;;
12852;SDS011;6495;51.808;7.478;2022-11-20T04:47:54;14.50;;;6.93;;
12852;SDS011;6495;51.808;7.478;2022-11-20T04:50:41;14.23;;;7.33;;
12852;SDS011;6495;51.808;7.478;2022-11-20T04:53:28;13.80;;;5.90;;
12852;SDS011;6495;51.808;7.478;2022-11-20T04:56:17;15.70;;;7.03;;
12852;SDS011;6495;51.808;7.478;2022-11-20T04:59:04;13.57;;;6.00;;
12852;SDS011;6495;51.808;7.478;2022-11-20T05:01:51;14.17;;;5.77;;
12852;SDS011;6495;51.808;7.478;2022-11-20T05:04:38;14.03;;;6.50;;
12852;SDS011;6495;51.808;7.478;2022-11-20T05:07:25;9.80;;;5.63;;
12852;SDS011;6495;51.808;7.478;2022-11-20T05:10:12;11.40;;;5.90;;
12852;SDS011;6495;51.808;7.478;2022-11-20T05:13:00;14.60;;;7.03;;
12852;SDS011;6495;51.808;7.478;2022-11-20T05:15:47;10.23;;;5.40;;
12852;SDS011;6495;51.808;7.478;2022-11-20T05:18:34;9.87;;;5.63;;
12852;SDS011;6495;51.808;7.478;2022-11-20T05:21:22;15.17;;;5.33;;
12852;SDS011;6495;51.808;7.478;2022-11-20T05:24:08;12.77;;;5.67;;
12852;SDS011;6495;51.808;7.478;2022-11-20T05:26:55;10.73;;;5.10;;
12852;SDS011;6495;51.808;7.478;2022-11-20T05:29:43;8.70;;;4.87;;
12852;SDS011;6495;51.808;7.478;2022-11-20T05:32:30;10.30;;;5.70;;
12852;SDS011;6495;51.808;7.478;2022-11-20T05:35:17;9.30;;;5.23;;
12852;SDS011;6495;51.808;7.478;2022-11-20T05:38:03;8.07;;;5.70;;
12852;SDS011;6495;51.808;7.478;2022-11-20T05:40:50;8.50;;;5.33;;
12852;SDS011;6495;51.808;7.478;2022-11-20T05:43:37;15.60;;;6.13;;
12852;SDS011;6495;51.808;7.478;2022-11-20T05:46:28;9.93;;;5.37;;
12852;SDS011;6495;51.808;7.478;2022-11-20T05:49:14;11.83;;;5.47;;
12852;SDS011;6495;51.808;7.478;2022-11-20T05:52:00;11.03;;;5.43;;
12852;SDS011;6495;51.808;7.478;2022-11-20T05:54:47;9.87;;;5.20;;
12852;SDS011;6495;51.808;7.478;2022-11-20T05:57:34;8.73;;;5.40;;
12852;SDS011;6495;51.808;7.478;2022-11-20T06:00:21;8.67;;;4.50;;
12852;SDS011;6495;51.808;7.478;2022-11-20T06:03:10;9.23;;;5.17;;
12852;SDS011;6495;51.808;7.478;2022-11-20T06:05:58;11.33;;;5.93;;
12852;SDS011;6495;51.808;7.478;2022-11-20T06:08:45;11.47;;;6.10;;
12852;SDS011;6495;51.808;7.478;2022-11-20T06:11:32;9.23;;;4.50;;
12852;SDS011;6495;51.808;7.478;2022-11-20T06:14:19;8.53;;;4.97;;
12852;SDS011;6495;51.808;7.478;2022-11-20T06:17:06;10.27;;;5.23;;
12852;SDS011;6495;51.808;7.478;2022-11-20T06:19:54;10.03;;;4.97;;
12852;SDS011;6495;51.808;7.478;2022-11-20T06:22:41;12.57;;;5.77;;
12852;SDS011;6495;51.808;7.478;2022-11-20T06:25:27;10.77;;;5.67;;
12852;SDS011;6495;51.808;7.478;2022-11-20T06:28:14;9.23;;;4.87;;
12852;SDS011;6495;51.808;7.478;2022-11-20T06:31:01;7.50;;;4.47;;
12852;SDS011;6495;51.808;7.478;2022-11-20T06:33:49;10.73;;;5.40;;
12852;SDS011;6495;51.808;7.478;2022-11-20T06:36:38;11.20;;;5.30;;
12852;SDS011;6495;51.808;7.478;2022-11-20T06:39:25;13.47;;;5.87;;
12852;SDS011;6495;51.808;7.478;2022-11-20T06:42:12;7.30;;;4.10;;
12852;SDS011;6495;51.808;7.478;2022-11-20T06:44:58;11.40;;;5.77;;
12852;SDS011;6495;51.808;7.478;2022-11-20T06:47:45;9.93;;;5.30;;
12852;SDS011;6495;51.808;7.478;2022-11-20T06:50:32;12.60;;;5.80;;
12852;SDS011;6495;51.808;7.478;2022-11-20T06:53:20;8.57;;;4.93;;
12852;SDS011;6495;51.808;7.478;2022-11-20T06:56:08;11.57;;;4.60;;
12852;SDS011;6495;51.808;7.478;2022-11-20T06:58:54;10.43;;;5.37;;
12852;SDS011;6495;51.808;7.478;2022-11-20T07:01:41;10.07;;;3.93;;
12852;SDS011;6495;51.808;7.478;2022-11-20T07:04:28;9.70;;;4.90;;
12852;SDS011;6495;51.808;7.478;2022-11-20T07:07:16;6.53;;;4.73;;
12852;SDS011;6495;51.808;7.478;2022-11-20T07:10:05;8.17;;;4.13;;
12852;SDS011;6495;51.808;7.478;2022-11-20T07:12:53;9.90;;;4.77;;
12852;SDS011;6495;51.808;7.478;2022-11-20T07:15:40;9.63;;;4.77;;
12852;SDS011;6495;51.808;7.478;2022-11-20T07:18:27;7.17;;;4.93;;
12852;SDS011;6495;51.808;7.478;2022-11-20T07:21:14;8.43;;;5.03;;
12852;SDS011;6495;51.808;7.478;2022-11-20T07:24:01;10.17;;;5.20;;
12852;SDS011;6495;51.808;7.478;2022-11-20T07:26:49;7.60;;;3.90;;
12852;SDS011;6495;51.808;7.478;2022-11-20T07:29:36;6.73;;;4.67;;
12852;SDS011;6495;51.808;7.478;2022-11-20T07:32:23;8.93;;;4.53;;
12852;SDS011;6495;51.808;7.478;2022-11-20T07:35:10;8.10;;;4.67;;
12852;SDS011;6495;51.808;7.478;2022-11-20T07:37:56;8.03;;;4.40;;
12852;SDS011;6495;51.808;7.478;2022-11-20T07:40:43;9.73;;;4.60;;
12852;SDS011;6495;51.808;7.478;2022-11-20T07:43:31;10.70;;;4.87;;
12852;SDS011;6495;51.808;7.478;2022-11-20T07:46:24;10.30;;;5.10;;
12852;SDS011;6495;51.808;7.478;2022-11-20T07:49:11;11.27;;;5.17;;
12852;SDS011;6495;51.808;7.478;2022-11-20T07:51:58;8.97;;;4.97;;
12852;SDS011;6495;51.808;7.478;2022-11-20T07:54:48;10.57;;;5.10;;
12852;SDS011;6495;51.808;7.478;2022-11-20T07:57:35;8.67;;;4.63;;
12852;SDS011;6495;51.808;7.478;2022-11-20T08:00:24;7.77;;;4.80;;
12852;SDS011;6495;51.808;7.478;2022-11-20T08:03:12;7.23;;;4.33;;
12852;SDS011;6495;51.808;7.478;2022-11-20T08:06:04;9.47;;;4.80;;
12852;SDS011;6495;51.808;7.478;2022-11-20T08:08:52;9.10;;;4.90;;
12852;SDS011;6495;51.808;7.478;2022-11-20T08:11:38;8.00;;;4.97;;
12852;SDS011;6495;51.808;7.478;2022-11-20T08:14:43;8.70;;;5.13;;
12852;SDS011;6495;51.808;7.478;2022-11-20T08:17:31;8.57;;;4.60;;
12852;SDS011;6495;51.808;7.478;2022-11-20T08:20:18;9.10;;;5.17;;
12852;SDS011;6495;51.808;7.478;2022-11-20T08:23:06;8.33;;;4.43;;
12852;SDS011;6495;51.808;7.478;2022-11-20T08:25:54;9.23;;;4.70;;
12852;SDS011;6495;51.808;7.478;2022-11-20T08:28:48;10.63;;;5.63;;
12852;SDS011;6495;51.808;7.478;2022-11-20T08:31:43;7.23;;;4.50;;
12852;SDS011;6495;51.808;7.478;2022-11-20T08:34:31;11.43;;;5.70;;
12852;SDS011;6495;51.808;7.478;2022-11-20T08:37:18;7.47;;;4.47;;
12852;SDS011;6495;51.808;7.478;2022-11-20T08:40:05;8.93;;;5.67;;
12852;SDS011;6495;51.808;7.478;2022-11-20T08:42:53;7.50;;;4.87;;
12852;SDS011;6495;51.808;7.478;2022-11-20T08:45:40;7.80;;;4.83;;
12852;SDS011;6495;51.808;7.478;2022-11-20T08:48:27;10.10;;;5.50;;
12852;SDS011;6495;51.808;7.478;2022-11-20T08:51:14;9.43;;;4.93;;
12852;SDS011;6495;51.808;7.478;2022-11-20T08:54:02;9.77;;;5.40;;
12852;SDS011;6495;51.808;7.478;2022-11-20T08:56:50;12.73;;;5.20;;
12852;SDS011;6495;51.808;7.478;2022-11-20T08:59:36;7.50;;;4.97;;
12852;SDS011;6495;51.808;7.478;2022-11-20T09:02:43;11.00;;;5.33;;
12852;SDS011;6495;51.808;7.478;2022-11-20T09:05:30;11.03;;;6.23;;
12852;SDS011;6495;51.808;7.478;2022-11-20T09:08:18;8.83;;;5.73;;
12852;SDS011;6495;51.808;7.478;2022-11-20T09:11:05;10.07;;;5.73;;
12852;SDS011;6495;51.808;7.478;2022-11-20T09:13:53;9.83;;;5.20;;
12852;SDS011;6495;51.808;7.478;2022-11-20T09:16:44;10.03;;;6.30;;
12852;SDS011;6495;51.808;7.478;2022-11-20T09:19:31;9.50;;;5.47;;
12852;SDS011;6495;51.808;7.478;2022-11-20T09:22:24;10.30;;;5.87;;
12852;SDS011;6495;51.808;7.478;2022-11-20T09:25:14;10.33;;;5.77;;
12852;SDS011;6495;51.808;7.478;2022-11-20T09:28:00;12.43;;;7.17;;
12852;SDS011;6495;51.808;7.478;2022-11-20T09:30:48;13.30;;;6.13;;
12852;SDS011;6495;51.808;7.478;2022-11-20T09:33:35;12.93;;;6.30;;
12852;SDS011;6495;51.808;7.478;2022-11-20T09:36:23;12.00;;;6.77;;
12852;SDS011;6495;51.808;7.478;2022-11-20T09:39:11;11.10;;;6.23;;
12852;SDS011;6495;51.808;7.478;2022-11-20T09:42:03;12.57;;;6.47;;
12852;SDS011;6495;51.808;7.478;2022-11-20T09:45:17;11.20;;;6.00;;
12852;SDS011;6495;51.808;7.478;2022-11-20T09:51:33;15.00;;;6.93;;
12852;SDS011;6495;51.808;7.478;2022-11-20T09:54:32;9.20;;;5.87;;
12852;SDS011;6495;51.808;7.478;2022-11-20T09:57:29;12.23;;;6.87;;
12852;SDS011;6495;51.808;7.478;2022-11-20T10:00:26;13.27;;;7.27;;
12852;SDS011;6495;51.808;7.478;2022-11-20T10:03:16;15.80;;;7.50;;
12852;SDS011;6495;51.808;7.478;2022-11-20T10:06:16;13.63;;;7.33;;
12852;SDS011;6495;51.808;7.478;2022-11-20T10:09:14;10.47;;;6.87;;
12852;SDS011;6495;51.808;7.478;2022-11-20T10:12:17;14.17;;;7.63;;
12852;SDS011;6495;51.808;7.478;2022-11-20T10:15:21;16.10;;;7.50;;
12852;SDS011;6495;51.808;7.478;2022-11-20T10:18:23;12.10;;;7.20;;
12852;SDS011;6495;51.808;7.478;2022-11-20T10:21:29;12.73;;;7.50;;
12852;SDS011;6495;51.808;7.478;2022-11-20T10:24:36;12.20;;;6.80;;
12852;SDS011;6495;51.808;7.478;2022-11-20T10:27:42;13.50;;;7.20;;
12852;SDS011;6495;51.808;7.478;2022-11-20T10:31:03;12.70;;;7.20;;
12852;SDS011;6495;51.808;7.478;2022-11-20T10:33:58;11.33;;;6.53;;
12852;SDS011;6495;51.808;7.478;2022-11-20T10:37:09;12.17;;;7.07;;
12852;SDS011;6495;51.808;7.478;2022-11-20T10:40:05;11.03;;;6.53;;
12852;SDS011;6495;51.808;7.478;2022-11-20T10:43:10;14.73;;;7.63;;
12852;SDS011;6495;51.808;7.478;2022-11-20T10:46:08;10.53;;;7.07;;
12852;SDS011;6495;51.808;7.478;2022-11-20T10:49:02;12.90;;;7.57;;
12852;SDS011;6495;51.808;7.478;2022-11-20T10:52:02;11.47;;;6.97;;
12852;SDS011;6495;51.808;7.478;2022-11-20T10:54:59;14.50;;;7.23;;
12852;SDS011;6495;51.808;7.478;2022-11-20T10:57:59;13.50;;;7.53;;
12852;SDS011;6495;51.808;7.478;2022-11-20T11:01:04;12.07;;;7.00;;
12852;SDS011;6495;51.808;7.478;2022-11-20T11:03:53;13.40;;;7.60;;
12852;SDS011;6495;51.808;7.478;2022-11-20T11:06:42;13.23;;;7.37;;
12852;SDS011;6495;51.808;7.478;2022-11-20T11:09:36;11.07;;;6.70;;
12852;SDS011;6495;51.808;7.478;2022-11-20T11:12:27;12.53;;;6.97;;
12852;SDS011;6495;51.808;7.478;2022-11-20T11:15:23;13.40;;;7.07;;
12852;SDS011;6495;51.808;7.478;2022-11-20T11:18:24;10.30;;;7.17;;
12852;SDS011;6495;51.808;7.478;2022-11-20T11:21:12;12.20;;;6.63;;
12852;SDS011;6495;51.808;7.478;2022-11-20T11:23:59;13.33;;;6.90;;
12852;SDS011;6495;51.808;7.478;2022-11-20T11:27:10;12.47;;;6.93;;
12852;SDS011;6495;51.808;7.478;2022-11-20T11:30:03;11.23;;;6.03;;
12852;SDS011;6495;51.808;7.478;2022-11-20T11:33:04;12.80;;;7.10;;
12852;SDS011;6495;51.808;7.478;2022-11-20T11:35:57;9.17;;;6.27;;
12852;SDS011;6495;51.808;7.478;2022-11-20T11:38:48;11.60;;;6.37;;
12852;SDS011;6495;51.808;7.478;2022-11-20T11:41:38;10.73;;;6.57;;
12852;SDS011;6495;51.808;7.478;2022-11-20T11:44:27;12.93;;;7.17;;
12852;SDS011;6495;51.808;7.478;2022-11-20T11:47:36;9.67;;;6.20;;
12852;SDS011;6495;51.808;7.478;2022-11-20T11:50:31;11.93;;;6.67;;
12852;SDS011;6495;51.808;7.478;2022-11-20T11:53:21;9.27;;;6.33;;
12852;SDS011;6495;51.808;7.478;2022-11-20T11:56:11;11.83;;;6.27;;
12852;SDS011;6495;51.808;7.478;2022-11-20T11:59:02;10.53;;;6.60;;
12852;SDS011;6495;51.808;7.478;2022-11-20T12:01:59;10.77;;;5.97;;
12852;SDS011;6495;51.808;7.478;2022-11-20T12:04:58;14.33;;;6.67;;
12852;SDS011;6495;51.808;7.478;2022-11-20T12:07:52;8.20;;;6.37;;
12852;SDS011;6495;51.808;7.478;2022-11-20T12:10:58;11.07;;;6.97;;
12852;SDS011;6495;51.808;7.478;2022-11-20T12:13:53;13.27;;;7.07;;
12852;SDS011;6495;51.808;7.478;2022-11-20T12:16:49;11.73;;;6.63;;
12852;SDS011;6495;51.808;7.478;2022-11-20T12:19:38;12.13;;;6.40;;
12852;SDS011;6495;51.808;7.478;2022-11-20T12:22:27;13.10;;;6.70;;
12852;SDS011;6495;51.808;7.478;2022-11-20T12:25:25;13.00;;;6.47;;
12852;SDS011;6495;51.808;7.478;2022-11-20T12:31:37;13.53;;;7.47;;
12852;SDS011;6495;51.808;7.478;2022-11-20T12:34:47;11.43;;;6.47;;
12852;SDS011;6495;51.808;7.478;2022-11-20T12:37:57;12.13;;;7.40;;
12852;SDS011;6495;51.808;7.478;2022-11-20T12:41:11;13.20;;;6.83;;
12852;SDS011;6495;51.808;7.478;2022-11-20T12:44:39;12.17;;;6.43;;
12852;SDS011;6495;51.808;7.478;2022-11-20T12:48:00;12.97;;;7.13;;
12852;SDS011;6495;51.808;7.478;2022-11-20T12:51:15;11.40;;;6.87;;
12852;SDS011;6495;51.808;7.478;2022-11-20T12:54:46;12.00;;;6.47;;
12852;SDS011;6495;51.808;7.478;2022-11-20T12:58:17;9.83;;;5.83;;
12852;SDS011;6495;51.808;7.478;2022-11-20T13:01:18;17.57;;;8.27;;
12852;SDS011;6495;51.808;7.478;2022-11-20T13:04:39;17.00;;;8.40;;
12852;SDS011;6495;51.808;7.478;2022-11-20T13:07:47;19.27;;;10.20;;
12852;SDS011;6495;51.808;7.478;2022-11-20T13:10:42;27.57;;;11.93;;
12852;SDS011;6495;51.808;7.478;2022-11-20T13:13:40;24.50;;;11.17;;
12852;SDS011;6495;51.808;7.478;2022-11-20T13:16:52;25.37;;;11.87;;
12852;SDS011;6495;51.808;7.478;2022-11-20T13:19:51;29.77;;;12.47;;
12852;SDS011;6495;51.808;7.478;2022-11-20T13:22:44;25.37;;;11.47;;
12852;SDS011;6495;51.808;7.478;2022-11-20T13:25:33;25.13;;;10.47;;
12852;SDS011;6495;51.808;7.478;2022-11-20T13:28:27;23.30;;;10.80;;
12852;SDS011;6495;51.808;7.478;2022-11-20T13:31:27;24.73;;;11.40;;
12852;SDS011;6495;51.808;7.478;2022-11-20T13:34:24;19.40;;;9.30;;
12852;SDS011;6495;51.808;7.478;2022-11-20T13:37:23;15.93;;;9.37;;
12852;SDS011;6495;51.808;7.478;2022-11-20T13:40:19;17.87;;;10.53;;
12852;SDS011;6495;51.808;7.478;2022-11-20T13:43:15;20.07;;;10.07;;
12852;SDS011;6495;51.808;7.478;2022-11-20T13:46:09;18.17;;;9.50;;
12852;SDS011;6495;51.808;7.478;2022-11-20T13:48:56;18.27;;;9.90;;
12852;SDS011;6495;51.808;7.478;2022-11-20T13:51:57;22.07;;;10.50;;
12852;SDS011;6495;51.808;7.478;2022-11-20T13:55:15;14.80;;;8.97;;
12852;SDS011;6495;51.808;7.478;2022-11-20T13:58:16;19.97;;;10.17;;
12852;SDS011;6495;51.808;7.478;2022-11-20T14:01:20;17.47;;;9.77;;
12852;SDS011;6495;51.808;7.478;2022-11-20T14:04:11;21.47;;;9.87;;
12852;SDS011;6495;51.808;7.478;2022-11-20T14:07:07;15.67;;;8.40;;
12852;SDS011;6495;51.808;7.478;2022-11-20T14:09:56;16.77;;;8.70;;
12852;SDS011;6495;51.808;7.478;2022-11-20T14:12:43;18.30;;;8.23;;
12852;SDS011;6495;51.808;7.478;2022-11-20T14:15:31;17.30;;;9.23;;
12852;SDS011;6495;51.808;7.478;2022-11-20T14:18:27;17.33;;;8.27;;
12852;SDS011;6495;51.808;7.478;2022-11-20T14:21:20;15.20;;;8.40;;
12852;SDS011;6495;51.808;7.478;2022-11-20T14:24:11;16.37;;;8.70;;
12852;SDS011;6495;51.808;7.478;2022-11-20T14:26:59;14.57;;;8.40;;
12852;SDS011;6495;51.808;7.478;2022-11-20T14:29:47;12.20;;;7.73;;
12852;SDS011;6495;51.808;7.478;2022-11-20T14:32:37;14.70;;;8.80;;
12852;SDS011;6495;51.808;7.478;2022-11-20T14:35:24;15.20;;;8.73;;
12852;SDS011;6495;51.808;7.478;2022-11-20T14:38:14;15.37;;;7.73;;
12852;SDS011;6495;51.808;7.478;2022-11-20T14:41:08;18.43;;;9.23;;
12852;SDS011;6495;51.808;7.478;2022-11-20T14:44:03;14.97;;;8.10;;
12852;SDS011;6495;51.808;7.478;2022-11-20T14:46:52;14.43;;;8.87;;
12852;SDS011;6495;51.808;7.478;2022-11-20T14:49:41;15.07;;;8.73;;
12852;SDS011;6495;51.808;7.478;2022-11-20T14:52:29;17.30;;;9.47;;
12852;SDS011;6495;51.808;7.478;2022-11-20T14:55:26;18.40;;;9.03;;
12852;SDS011;6495;51.808;7.478;2022-11-20T14:58:21;15.07;;;7.77;;
12852;SDS011;6495;51.808;7.478;2022-11-20T15:01:11;16.77;;;8.50;;
12852;SDS011;6495;51.808;7.478;2022-11-20T15:03:59;15.07;;;7.97;;
12852;SDS011;6495;51.808;7.478;2022-11-20T15:06:51;15.00;;;7.97;;
12852;SDS011;6495;51.808;7.478;2022-11-20T15:09:40;17.17;;;7.43;;
12852;SDS011;6495;51.808;7.478;2022-11-20T15:12:27;15.17;;;8.80;;
12852;SDS011;6495;51.808;7.478;2022-11-20T15:15:18;17.73;;;9.27;;
12852;SDS011;6495;51.808;7.478;2022-11-20T15:18:12;17.23;;;8.80;;
12852;SDS011;6495;51.808;7.478;2022-11-20T15:21:03;15.17;;;8.57;;
12852;SDS011;6495;51.808;7.478;2022-11-20T15:23:56;14.83;;;7.73;;
12852;SDS011;6495;51.808;7.478;2022-11-20T15:26:45;14.37;;;7.70;;
12852;SDS011;6495;51.808;7.478;2022-11-20T15:29:34;16.33;;;8.17;;
12852;SDS011;6495;51.808;7.478;2022-11-20T15:32:23;14.90;;;8.03;;
12852;SDS011;6495;51.808;7.478;2022-11-20T15:35:09;16.57;;;9.03;;
12852;SDS011;6495;51.808;7.478;2022-11-20T15:37:57;14.27;;;8.20;;
12852;SDS011;6495;51.808;7.478;2022-11-20T15:40:44;15.33;;;7.13;;
12852;SDS011;6495;51.808;7.478;2022-11-20T15:43:31;12.23;;;6.63;;
12852;SDS011;6495;51.808;7.478;2022-11-20T15:46:19;13.43;;;7.40;;
12852;SDS011;6495;51.808;7.478;2022-11-20T15:49:14;16.93;;;7.87;;
12852;SDS011;6495;51.808;7.478;2022-11-20T15:52:03;17.20;;;7.80;;
12852;SDS011;6495;51.808;7.478;2022-11-20T15:54:50;14.13;;;7.37;;
12852;SDS011;6495;51.808;7.478;2022-11-20T15:57:38;16.90;;;7.60;;
12852;SDS011;6495;51.808;7.478;2022-11-20T16:00:25;11.27;;;7.10;;
12852;SDS011;6495;51.808;7.478;2022-11-20T16:03:12;12.30;;;6.87;;
12852;SDS011;6495;51.808;7.478;2022-11-20T16:06:02;13.37;;;6.67;;
12852;SDS011;6495;51.808;7.478;2022-11-20T16:08:49;14.53;;;7.67;;
12852;SDS011;6495;51.808;7.478;2022-11-20T16:11:36;16.53;;;7.27;;
12852;SDS011;6495;51.808;7.478;2022-11-20T16:14:23;14.17;;;6.93;;
12852;SDS011;6495;51.808;7.478;2022-11-20T16:17:29;14.03;;;7.13;;
12852;SDS011;6495;51.808;7.478;2022-11-20T16:20:29;14.53;;;7.97;;
12852;SDS011;6495;51.808;7.478;2022-11-20T16:23:17;13.83;;;7.27;;
12852;SDS011;6495;51.808;7.478;2022-11-20T16:26:08;16.20;;;7.50;;
12852;SDS011;6495;51.808;7.478;2022-11-20T16:28:57;16.20;;;8.17;;
12852;SDS011;6495;51.808;7.478;2022-11-20T16:31:45;14.57;;;8.07;;
12852;SDS011;6495;51.808;7.478;2022-11-20T16:34:32;12.57;;;7.30;;
12852;SDS011;6495;51.808;7.478;2022-11-20T16:37:18;17.27;;;8.00;;
12852;SDS011;6495;51.808;7.478;2022-11-20T16:40:07;17.07;;;9.20;;
12852;SDS011;6495;51.808;7.478;2022-11-20T16:42:56;16.80;;;7.87;;
12852;SDS011;6495;51.808;7.478;2022-11-20T16:45:43;14.53;;;7.70;;
12852;SDS011;6495;51.808;7.478;2022-11-20T16:48:30;13.33;;;7.47;;
12852;SDS011;6495;51.808;7.478;2022-11-20T16:51:17;13.10;;;7.23;;
12852;SDS011;6495;51.808;7.478;2022-11-20T16:54:05;13.37;;;7.23;;
12852;SDS011;6495;51.808;7.478;2022-11-20T16:56:55;16.00;;;7.93;;
12852;SDS011;6495;51.808;7.478;2022-11-20T16:59:42;13.40;;;8.10;;
12852;SDS011;6495;51.808;7.478;2022-11-20T17:02:29;16.13;;;8.40;;
12852;SDS011;6495;51.808;7.478;2022-11-20T17:05:16;13.10;;;7.23;;
12852;SDS011;6495;51.808;7.478;2022-11-20T17:08:05;15.53;;;8.00;;
12852;SDS011;6495;51.808;7.478;2022-11-20T17:10:52;13.77;;;7.47;;
12852;SDS011;6495;51.808;7.478;2022-11-20T17:13:40;14.20;;;6.40;;
12852;SDS011;6495;51.808;7.478;2022-11-20T17:16:28;12.47;;;6.47;;
12852;SDS011;6495;51.808;7.478;2022-11-20T17:19:16;13.33;;;6.60;;
12852;SDS011;6495;51.808;7.478;2022-11-20T17:22:03;15.07;;;8.00;;
12852;SDS011;6495;51.808;7.478;2022-11-20T17:24:49;13.47;;;7.37;;